PWSweather.com
Personal Weather Stations
Station Observations
WISCHPK61
Green Bay Schmitt Park, Green Bay, WI 54311

Green Bay Schmitt ParkGreen Bay, WI 54311

Lat: 44.514277, Lon: -87.935067

Elevation: 735

Station Type: Acu Rite Pro Weather Center model 02032C

http://greenbayweathercam.com

High Low Average
Temperature 80.2°F26.8°C 64.9°F18.3°C 70.9°F21.6°C
Dew Point 79.9°F26.6°C 64.3°F17.9°C 69.6°F20.9°C
Winds Calm Calm Calm Calm Calm SCalm S
Wind Gusts -- -- --
Humidity 99% 76% 96%
Pressure 29.42 in996.3 mb 29.36 in994.2 mb -
Precipitation 0.52 in13.2 mm - -
Hour Temp Dew Point Humidity Winds Wind Gusts Pressure Precip Precip Rate Daily Precip Total
12:00 AM 65.1°F18.4°C 64.5°F18.1°C 98% Calm Calm -- 29.38 in994.9 mb - 0.00 in0.0 mm 0.00 in0.0 mm
01:00 AM 65.3°F18.5°C 64.7°F18.2°C 98% Calm Calm -- 29.38 in994.9 mb - 0.00 in0.0 mm 0.00 in0.0 mm
02:00 AM 65.5°F18.6°C 64.9°F18.3°C 98% Calm Calm -- 29.42 in996.3 mb - 0.01 in0.3 mm 0.01 in0.3 mm
03:00 AM 65.8°F18.8°C 65.2°F18.4°C 98% Calm Calm -- 29.37 in994.6 mb - 0.03 in0.8 mm 0.04 in1.0 mm
04:00 AM 65.5°F18.6°C 65.2°F18.4°C 99% Calm Calm -- 29.40 in995.6 mb - 0.20 in5.1 mm 0.24 in6.1 mm
05:00 AM 65.1°F18.4°C 64.8°F18.2°C 99% Calm Calm -- 29.37 in994.6 mb - 0.19 in4.8 mm 0.42 in10.7 mm
06:00 AM 64.9°F18.3°C 64.3°F17.9°C 98% Calm Calm -- 29.36 in994.2 mb - 0.02 in0.5 mm 0.43 in10.9 mm
07:00 AM 64.9°F18.3°C 64.6°F18.1°C 99% Calm Calm -- 29.38 in994.9 mb - 0.08 in2.0 mm 0.51 in13.0 mm
08:00 AM 65.8°F18.8°C 65.5°F18.6°C 99% Calm Calm -- 29.39 in995.3 mb - 0.01 in0.3 mm 0.52 in13.2 mm
09:00 AM 66.0°F18.9°C 65.4°F18.6°C 98% Calm Calm -- 29.39 in995.3 mb - 0.00 in0.0 mm 0.52 in13.2 mm
10:00 AM 67.8°F19.9°C 67.5°F19.7°C 99% Calm Calm -- 29.40 in995.6 mb - 0.00 in0.0 mm 0.52 in13.2 mm
11:00 AM 71.2°F21.8°C 70.9°F21.6°C 99% Calm Calm -- 29.39 in995.3 mb - 0.00 in0.0 mm 0.52 in13.2 mm
12:00 PM 73.2°F22.9°C 65.6°F18.7°C 77% Calm Calm -- 29.36 in994.2 mb - 0.00 in0.0 mm 0.52 in13.2 mm
01:00 PM 75.2°F24.0°C 68.2°F20.1°C 79% Calm Calm -- 29.36 in994.2 mb - 0.00 in0.0 mm 0.52 in13.2 mm
02:00 PM 78.8°F26.0°C 78.5°F25.8°C 99% Calm Calm -- 29.36 in994.2 mb - 0.00 in0.0 mm 0.52 in13.2 mm
03:00 PM 78.3°F25.7°C 70.1°F21.2°C 76% Calm Calm -- 29.39 in995.3 mb - 0.00 in0.0 mm 0.52 in13.2 mm
04:00 PM 80.2°F26.8°C 79.9°F26.6°C 99% Calm Calm -- 29.38 in994.9 mb - 0.00 in0.0 mm 0.52 in13.2 mm
05:00 PM 80.1°F26.7°C 79.8°F26.6°C 99% Calm Calm -- 29.36 in994.2 mb - 0.00 in0.0 mm 0.52 in13.2 mm
06:00 PM 77.7°F25.4°C 77.4°F25.2°C 99% Calm Calm -- 29.36 in994.2 mb - 0.00 in0.0 mm 0.52 in13.2 mm
07:00 PM 76.5°F24.7°C 76.2°F24.6°C 99% Calm Calm -- 29.36 in994.2 mb - 0.00 in0.0 mm 0.52 in13.2 mm
08:00 PM 74.1°F23.4°C 73.8°F23.2°C 99% Calm Calm -- 29.36 in994.2 mb - 0.00 in0.0 mm 0.52 in13.2 mm
09:00 PM 71.6°F22.0°C 71.3°F21.8°C 99% Calm Calm -- 29.37 in994.6 mb - 0.00 in0.0 mm 0.52 in13.2 mm
10:00 PM 70.2°F21.2°C 69.9°F21.1°C 99% Calm Calm -- 29.39 in995.3 mb - 0.00 in0.0 mm 0.52 in13.2 mm
11:00 PM 69.1°F20.6°C 68.5°F20.3°C 98% Calm Calm -- 29.38 in994.9 mb - 0.00 in0.0 mm 0.52 in13.2 mm